Terminal Aerodrome Forecast
Issued by NWS

Home | Current Version | Previous Version | Text Only | Print | Product List | Glossary Off
Versions: 1 2 3 4 5 6 7 8 9 10 11 12 13 14 15 16 17 18 19 20 21 22 23 24 25 26 27 28 29 30 31 32 33 34 35 36 37 38

000
FTUS43 KLOT 031737
TAFORD
TAF
KORD 031737Z 0318/0424 26010KT P6SM BKN050
     FM040000 04009KT P6SM VCTS BKN015 BKN050CB BKN250
     FM040400 06004KT 6SM BR SCT020 BKN040
     FM041500 07007KT P6SM SCT050=

USA.gov is the U.S. government's official web portal to all federal, state and local government web resources and services.